Adler, Russia

8:35 PM MSK on January 28, 2015 (GMT +0300)
Sochi | Change Station
CLOSE
Current Station
Airport
Location: Adler,
Elevation: 43 ft
Nearby Weather Stations

Elev 43 ft 43.44 °N, 39.93 °E | Updated 35 minutes ago

Overcast
Overcast
52 °F
Feels Like 52 °F
N
4
Wind Variable Wind from East

Today
High -- | Low -- °F
--% Chance of Precip.
Yesterday
High -- | Low -- °F
Precip. -- in
7:41 AM 5:25 PM
Waxing Gibbous, 66% visible
Pressure 29.83 in
Visibility 6.2 miles
Clouds Overcast 8300 ft
Dew Point 36 °F
Humidity 54%
Rainfall 0.00 in
Snow Depth Not available.
UV 0 out of 12
Pollen Not available.
Air Quality Not available.
Flu Activity Not available.
METAR URSS 281700Z 10002MPS 9999 OVC083 11/02 Q1010 NOSIG RMK R02/04002MPS QFE756 06000070 02//////

More Conditions Fewer Conditions

Pressure 29.83 in
Visibility 6.2 miles
Clouds Overcast 8300 ft
Dew Point 36 °F
Humidity 54%
Rainfall 0.00 in
Snow Depth Not available.
UV 0 out of 12
Pollen Not available.
Air Quality Not available.
Flu Activity Not available.
METAR URSS 281700Z 10002MPS 9999 OVC083 11/02 Q1010 NOSIG RMK R02/04002MPS QFE756 06000070 02//////

More Conditions Fewer Conditions

10-Day Weather Forecast

Almanac

Astronomy

Jan. 28, 2015 Rise Set
Actual Time
Civil Twilight
Nautical Twilight
Astronomical Twilight
Moon
Length of Visible Light
Length of Day
Tomorrow will be .
, % of the Moon is Illuminated

Today's Extremes

Country Highs Country Lows

Community

WunderPhotos

Upload Photos

1,791,214 photos uploaded!

WunderBlogs® & News

Nearby

Air Quality

  Air Quality AQ Index Pollutant
Not available.

Snow Depth

Station Depth Elevation

Earthquake Activity

City Distance Mag. Time & Date
Minimum magnitude displayed is 2.5.

Coastal Water Temperatures

Place Temperature

Nearby Weather Stations